sensor_id;sensor_type;location;lat;lon;timestamp;pressure;altitude;pressure_sealevel;temperature;humidity
73240;BME280;61452;40.054;4.110;2023-04-01T00:04:27;101845.50;;;17.87;56.30
73240;BME280;61452;40.054;4.110;2023-04-01T00:09:29;101851.75;;;17.86;56.42
73240;BME280;61452;40.054;4.110;2023-04-01T00:14:31;101851.84;;;17.85;56.29
73240;BME280;61452;40.054;4.110;2023-04-01T00:19:34;101834.97;;;17.86;56.48
73240;BME280;61452;40.054;4.110;2023-04-01T00:24:36;101832.25;;;17.87;56.94
73240;BME280;61452;40.054;4.110;2023-04-01T00:29:41;101818.19;;;17.85;56.54
73240;BME280;61452;40.054;4.110;2023-04-01T00:34:44;101809.38;;;17.85;56.43
73240;BME280;61452;40.054;4.110;2023-04-01T00:39:47;101809.38;;;17.85;56.32
73240;BME280;61452;40.054;4.110;2023-04-01T00:44:52;101812.03;;;17.85;56.37
73240;BME280;61452;40.054;4.110;2023-04-01T00:49:54;101810.38;;;17.84;56.45
73240;BME280;61452;40.054;4.110;2023-04-01T00:54:58;101835.06;;;17.84;56.36
73240;BME280;61452;40.054;4.110;2023-04-01T01:00:06;101828.09;;;17.83;56.30
73240;BME280;61452;40.054;4.110;2023-04-01T01:05:14;101825.31;;;17.85;56.47
73240;BME280;61452;40.054;4.110;2023-04-01T01:25:53;101821.91;;;17.83;56.53
73240;BME280;61452;40.054;4.110;2023-04-01T01:36:13;101811.19;;;17.84;56.02
73240;BME280;61452;40.054;4.110;2023-04-01T01:41:17;101806.72;;;17.85;56.02
73240;BME280;61452;40.054;4.110;2023-04-01T01:46:23;101828.16;;;17.82;56.03
73240;BME280;61452;40.054;4.110;2023-04-01T01:51:27;101835.28;;;17.81;56.06
73240;BME280;61452;40.054;4.110;2023-04-01T01:56:30;101833.41;;;17.83;55.95
73240;BME280;61452;40.054;4.110;2023-04-01T02:01:38;101828.16;;;17.82;56.00
73240;BME280;61452;40.054;4.110;2023-04-01T02:06:51;101813.97;;;17.83;56.07
73240;BME280;61452;40.054;4.110;2023-04-01T02:12:07;101809.50;;;17.83;55.92
73240;BME280;61452;40.054;4.110;2023-04-01T02:17:19;101821.91;;;17.83;56.13
73240;BME280;61452;40.054;4.110;2023-04-01T02:22:26;101829.97;;;17.81;56.07
73240;BME280;61452;40.054;4.110;2023-04-01T02:27:30;101825.53;;;17.82;55.99
73240;BME280;61452;40.054;4.110;2023-04-01T02:32:33;101826.38;;;17.82;55.83
73240;BME280;61452;40.054;4.110;2023-04-01T02:37:40;101824.56;;;17.83;55.79
73240;BME280;61452;40.054;4.110;2023-04-01T02:42:44;101818.41;;;17.82;55.74
73240;BME280;61452;40.054;4.110;2023-04-01T02:47:46;101817.66;;;17.80;55.69
73240;BME280;61452;40.054;4.110;2023-04-01T02:52:48;101823.72;;;17.82;55.67
73240;BME280;61452;40.054;4.110;2023-04-01T02:57:50;101829.13;;;17.81;55.76
73240;BME280;61452;40.054;4.110;2023-04-01T03:02:53;101822.94;;;17.80;55.62
73240;BME280;61452;40.054;4.110;2023-04-01T03:07:55;101822.00;;;17.81;55.73
73240;BME280;61452;40.054;4.110;2023-04-01T03:12:57;101814.03;;;17.81;55.81
73240;BME280;61452;40.054;4.110;2023-04-01T03:18:00;101827.31;;;17.81;55.78
73240;BME280;61452;40.054;4.110;2023-04-01T03:23:02;101830.06;;;17.79;55.95
73240;BME280;61452;40.054;4.110;2023-04-01T03:28:04;101823.97;;;17.77;55.91
73240;BME280;61452;40.054;4.110;2023-04-01T03:33:06;101818.50;;;17.81;56.05
73240;BME280;61452;40.054;4.110;2023-04-01T03:38:08;101823.91;;;17.79;56.01
73240;BME280;61452;40.054;4.110;2023-04-01T03:43:10;101823.91;;;17.79;55.57
73240;BME280;61452;40.054;4.110;2023-04-01T03:48:16;101820.28;;;17.80;55.58
73240;BME280;61452;40.054;4.110;2023-04-01T03:53:18;101802.75;;;17.77;55.78
73240;BME280;61452;40.054;4.110;2023-04-01T03:58:22;101797.44;;;17.77;55.73
73240;BME280;61452;40.054;4.110;2023-04-01T04:03:25;101796.41;;;17.80;55.64
73240;BME280;61452;40.054;4.110;2023-04-01T04:08:28;101798.22;;;17.79;55.65
73240;BME280;61452;40.054;4.110;2023-04-01T04:13:30;101780.97;;;17.72;55.46
73240;BME280;61452;40.054;4.110;2023-04-01T04:18:36;101797.44;;;17.77;55.67
73240;BME280;61452;40.054;4.110;2023-04-01T04:23:38;101798.28;;;17.78;55.82
73240;BME280;61452;40.054;4.110;2023-04-01T04:28:40;101795.56;;;17.79;55.67
73240;BME280;61452;40.054;4.110;2023-04-01T04:33:43;101794.69;;;17.79;55.71
73240;BME280;61452;40.054;4.110;2023-04-01T04:38:46;101802.66;;;17.79;55.79
73240;BME280;61452;40.054;4.110;2023-04-01T04:43:50;101808.19;;;17.76;56.20
73240;BME280;61452;40.054;4.110;2023-04-01T04:48:53;101807.22;;;17.77;55.76
73240;BME280;61452;40.054;4.110;2023-04-01T04:53:56;101819.44;;;17.79;55.58
73240;BME280;61452;40.054;4.110;2023-04-01T04:59:09;101844.38;;;17.77;55.59
73240;BME280;61452;40.054;4.110;2023-04-01T05:04:18;101839.16;;;17.75;55.80
73240;BME280;61452;40.054;4.110;2023-04-01T05:09:21;101839.09;;;17.77;55.74
73240;BME280;61452;40.054;4.110;2023-04-01T05:14:23;101841.75;;;17.77;55.47
73240;BME280;61452;40.054;4.110;2023-04-01T05:19:33;101847.03;;;17.77;55.66
73240;BME280;61452;40.054;4.110;2023-04-01T05:24:35;101855.09;;;17.75;55.61
73240;BME280;61452;40.054;4.110;2023-04-01T05:29:37;101875.53;;;17.73;55.72
73240;BME280;61452;40.054;4.110;2023-04-01T05:34:42;101878.13;;;17.75;55.73
73240;BME280;61452;40.054;4.110;2023-04-01T05:39:44;101888.53;;;17.78;55.57
73240;BME280;61452;40.054;4.110;2023-04-01T05:44:46;101899.25;;;17.76;55.59
73240;BME280;61452;40.054;4.110;2023-04-01T05:50:15;101895.84;;;17.74;55.69
73240;BME280;61452;40.054;4.110;2023-04-01T05:55:17;101890.44;;;17.76;55.66
73240;BME280;61452;40.054;4.110;2023-04-01T06:00:20;101890.44;;;17.76;55.55
73240;BME280;61452;40.054;4.110;2023-04-01T06:05:25;101902.84;;;17.75;55.63
73240;BME280;61452;40.054;4.110;2023-04-01T06:16:25;101911.94;;;17.71;55.73
73240;BME280;61452;40.054;4.110;2023-04-01T06:27:20;101913.63;;;17.72;55.76
73240;BME280;61452;40.054;4.110;2023-04-01T06:32:48;101908.34;;;17.72;55.67
73240;BME280;61452;40.054;4.110;2023-04-01T06:49:12;101936.88;;;17.69;55.50
73240;BME280;61452;40.054;4.110;2023-04-01T06:54:20;101931.34;;;17.72;55.40
73240;BME280;61452;40.054;4.110;2023-04-01T06:59:54;101952.72;;;17.70;55.54
73240;BME280;61452;40.054;4.110;2023-04-01T07:04:58;101946.44;;;17.71;55.32
73240;BME280;61452;40.054;4.110;2023-04-01T07:10:27;101957.16;;;17.70;55.42
73240;BME280;61452;40.054;4.110;2023-04-01T07:16:03;101971.16;;;17.72;55.45
73240;BME280;61452;40.054;4.110;2023-04-01T07:21:23;101958.00;;;17.70;55.38
73240;BME280;61452;40.054;4.110;2023-04-01T07:26:29;101936.28;;;17.64;55.33
73240;BME280;61452;40.054;4.110;2023-04-01T07:37:06;101949.09;;;17.71;55.63
73240;BME280;61452;40.054;4.110;2023-04-01T07:53:36;101957.16;;;17.70;55.50
73240;BME280;61452;40.054;4.110;2023-04-01T07:59:06;101944.81;;;17.69;55.60
73240;BME280;61452;40.054;4.110;2023-04-01T08:16:25;101973.16;;;17.68;55.62
73240;BME280;61452;40.054;4.110;2023-04-01T08:21:46;101980.19;;;17.69;55.67
73240;BME280;61452;40.054;4.110;2023-04-01T08:26:53;101977.53;;;17.69;55.39
73240;BME280;61452;40.054;4.110;2023-04-01T08:32:06;101996.09;;;17.69;55.48
73240;BME280;61452;40.054;4.110;2023-04-01T08:37:21;102004.91;;;17.70;55.44
73240;BME280;61452;40.054;4.110;2023-04-01T08:42:50;102024.44;;;17.69;55.63
73240;BME280;61452;40.054;4.110;2023-04-01T09:27:05;102024.34;;;17.70;55.32
73240;BME280;61452;40.054;4.110;2023-04-01T09:37:53;102022.63;;;17.69;55.45
73240;BME280;61452;40.054;4.110;2023-04-01T09:59:49;102020.00;;;17.69;55.48
73240;BME280;61452;40.054;4.110;2023-04-01T10:38:42;102005.88;;;17.69;55.78
73240;BME280;61452;40.054;4.110;2023-04-01T11:22:26;101935.06;;;17.69;55.79
73240;BME280;61452;40.054;4.110;2023-04-01T11:55:24;101890.69;;;17.71;55.81
73240;BME280;61452;40.054;4.110;2023-04-01T12:00:51;101882.75;;;17.71;55.65
73240;BME280;61452;40.054;4.110;2023-04-01T12:06:22;101872.91;;;17.73;55.55
73240;BME280;61452;40.054;4.110;2023-04-01T12:11:51;101872.03;;;17.73;55.42
73240;BME280;61452;40.054;4.110;2023-04-01T12:38:25;101867.50;;;17.75;55.39
73240;BME280;61452;40.054;4.110;2023-04-01T13:15:58;101817.84;;;17.77;55.49
73240;BME280;61452;40.054;4.110;2023-04-01T13:21:49;101813.56;;;17.74;55.65
73240;BME280;61452;40.054;4.110;2023-04-01T13:32:36;101790.53;;;17.75;55.40
73240;BME280;61452;40.054;4.110;2023-04-01T13:37:52;101791.31;;;17.77;55.53
73240;BME280;61452;40.054;4.110;2023-04-01T13:53:42;101785.03;;;17.78;55.63
73240;BME280;61452;40.054;4.110;2023-04-01T14:15:07;101794.78;;;17.77;55.46
73240;BME280;61452;40.054;4.110;2023-04-01T14:20:36;101776.13;;;17.79;55.24
73240;BME280;61452;40.054;4.110;2023-04-01T14:31:26;101748.72;;;17.78;55.15
73240;BME280;61452;40.054;4.110;2023-04-01T14:52:28;101700.88;;;17.80;55.20
73240;BME280;61452;40.054;4.110;2023-04-01T14:57:33;101696.50;;;17.79;55.16
73240;BME280;61452;40.054;4.110;2023-04-01T15:02:51;101667.31;;;17.79;55.22
73240;BME280;61452;40.054;4.110;2023-04-01T15:08:22;101663.94;;;17.77;54.98
73240;BME280;61452;40.054;4.110;2023-04-01T15:40:03;101637.09;;;17.82;54.77
73240;BME280;61452;40.054;4.110;2023-04-01T15:56:24;101613.19;;;17.82;54.79
73240;BME280;61452;40.054;4.110;2023-04-01T16:17:59;101572.44;;;17.83;54.82
73240;BME280;61452;40.054;4.110;2023-04-01T16:23:39;101557.38;;;17.83;54.84
73240;BME280;61452;40.054;4.110;2023-04-01T16:28:57;101553.88;;;17.83;54.94
73240;BME280;61452;40.054;4.110;2023-04-01T16:34:15;101549.19;;;17.86;54.66
73240;BME280;61452;40.054;4.110;2023-04-01T16:45:06;101539.53;;;17.85;54.77
73240;BME280;61452;40.054;4.110;2023-04-01T16:50:25;101543.03;;;17.86;55.02
73240;BME280;61452;40.054;4.110;2023-04-01T16:55:57;101533.28;;;17.86;54.94
73240;BME280;61452;40.054;4.110;2023-04-01T17:01:17;101546.53;;;17.86;54.96
73240;BME280;61452;40.054;4.110;2023-04-01T17:06:39;101557.16;;;17.86;54.91
73240;BME280;61452;40.054;4.110;2023-04-01T17:11:59;101541.22;;;17.86;54.84
73240;BME280;61452;40.054;4.110;2023-04-01T17:39:01;101520.66;;;17.90;54.87
73240;BME280;61452;40.054;4.110;2023-04-01T17:44:24;101524.28;;;17.89;55.03
73240;BME280;61452;40.054;4.110;2023-04-01T17:49:49;101520.75;;;17.88;54.80
73240;BME280;61452;40.054;4.110;2023-04-01T17:55:25;101516.31;;;17.89;54.86
73240;BME280;61452;40.054;4.110;2023-04-01T18:00:38;101521.38;;;17.92;54.87
73240;BME280;61452;40.054;4.110;2023-04-01T18:11:23;101506.31;;;17.92;54.75
73240;BME280;61452;40.054;4.110;2023-04-01T18:16:47;101504.63;;;17.91;54.81
73240;BME280;61452;40.054;4.110;2023-04-01T18:21:56;101508.97;;;17.92;54.93
73240;BME280;61452;40.054;4.110;2023-04-01T18:33:22;101502.81;;;17.92;54.86
73240;BME280;61452;40.054;4.110;2023-04-01T18:38:03;101521.50;;;17.90;54.94
73240;BME280;61452;40.054;4.110;2023-04-01T18:54:19;101538.25;;;17.91;55.05
73240;BME280;61452;40.054;4.110;2023-04-01T18:59:36;101532.97;;;17.91;55.03
73240;BME280;61452;40.054;4.110;2023-04-01T19:05:42;101521.63;;;17.89;55.13
73240;BME280;61452;40.054;4.110;2023-04-01T19:32:38;101486.16;;;17.90;54.91
73240;BME280;61452;40.054;4.110;2023-04-01T19:37:57;101486.25;;;17.88;54.93
73240;BME280;61452;40.054;4.110;2023-04-01T19:43:29;101509.19;;;17.89;54.91
73240;BME280;61452;40.054;4.110;2023-04-01T20:04:33;101515.34;;;17.90;54.99
73240;BME280;61452;40.054;4.110;2023-04-01T20:14:54;101503.13;;;17.87;54.90
73240;BME280;61452;40.054;4.110;2023-04-01T20:20:02;101500.47;;;17.87;54.99
73240;BME280;61452;40.054;4.110;2023-04-01T20:25:19;101510.16;;;17.88;54.90
73240;BME280;61452;40.054;4.110;2023-04-01T20:51:29;101437.63;;;17.88;55.11
73240;BME280;61452;40.054;4.110;2023-04-01T21:07:31;101403.13;;;17.88;55.01
73240;BME280;61452;40.054;4.110;2023-04-01T21:23:37;101428.81;;;17.87;54.99
73240;BME280;61452;40.054;4.110;2023-04-01T22:07:17;101743.72;;;17.88;55.61
73240;BME280;61452;40.054;4.110;2023-04-01T22:17:42;101741.91;;;17.89;55.31
73240;BME280;61452;40.054;4.110;2023-04-01T22:23:22;101715.75;;;17.83;55.67
73240;BME280;61452;40.054;4.110;2023-04-01T22:49:38;101759.66;;;17.74;55.22
73240;BME280;61452;40.054;4.110;2023-04-01T22:54:52;101780.88;;;17.74;55.45
73240;BME280;61452;40.054;4.110;2023-04-01T23:00:03;101742.97;;;17.72;55.84
73240;BME280;61452;40.054;4.110;2023-04-01T23:05:13;101632.38;;;17.72;55.36
73240;BME280;61452;40.054;4.110;2023-04-01T23:10:27;101646.69;;;17.70;55.05
73240;BME280;61452;40.054;4.110;2023-04-01T23:15:32;101665.91;;;17.73;55.13
73240;BME280;61452;40.054;4.110;2023-04-01T23:20:56;101651.88;;;17.71;54.81
73240;BME280;61452;40.054;4.110;2023-04-01T23:31:39;101669.72;;;17.69;55.18
73240;BME280;61452;40.054;4.110;2023-04-01T23:36:54;101637.97;;;17.68;55.02
73240;BME280;61452;40.054;4.110;2023-04-01T23:42:21;101660.16;;;17.67;54.33
73240;BME280;61452;40.054;4.110;2023-04-01T23:47:28;101630.09;;;17.66;54.33
73240;BME280;61452;40.054;4.110;2023-04-01T23:52:38;101651.34;;;17.66;54.54
73240;BME280;61452;40.054;4.110;2023-04-01T23:57:41;101654.94;;;17.65;53.85
